sensor_id;sensor_type;location;lat;lon;timestamp;P1;durP1;ratioP1;P2;durP2;ratioP2
80850;SDS011;70268;50.292;6.666;2023-07-31T00:00:05;3.17;;;1.00;;
80850;SDS011;70268;50.292;6.666;2023-07-31T00:02:36;3.88;;;1.20;;
80850;SDS011;70268;50.292;6.666;2023-07-31T00:05:05;1.58;;;0.88;;
80850;SDS011;70268;50.292;6.666;2023-07-31T00:07:34;5.53;;;1.10;;
80850;SDS011;70268;50.292;6.666;2023-07-31T00:10:02;1.88;;;0.85;;
80850;SDS011;70268;50.292;6.666;2023-07-31T00:12:31;1.42;;;0.73;;
80850;SDS011;70268;50.292;6.666;2023-07-31T00:15:01;2.38;;;1.05;;
80850;SDS011;70268;50.292;6.666;2023-07-31T00:17:30;2.13;;;0.93;;
80850;SDS011;70268;50.292;6.666;2023-07-31T00:19:59;1.13;;;0.88;;
80850;SDS011;70268;50.292;6.666;2023-07-31T00:22:27;2.60;;;1.27;;
80850;SDS011;70268;50.292;6.666;2023-07-31T00:24:56;2.63;;;0.95;;
80850;SDS011;70268;50.292;6.666;2023-07-31T00:27:26;2.90;;;0.93;;
80850;SDS011;70268;50.292;6.666;2023-07-31T00:29:55;3.92;;;1.00;;
80850;SDS011;70268;50.292;6.666;2023-07-31T00:32:25;2.75;;;0.70;;
80850;SDS011;70268;50.292;6.666;2023-07-31T00:34:53;1.23;;;0.73;;
80850;SDS011;70268;50.292;6.666;2023-07-31T00:37:22;1.50;;;0.80;;
80850;SDS011;70268;50.292;6.666;2023-07-31T00:39:51;1.52;;;0.80;;
80850;SDS011;70268;50.292;6.666;2023-07-31T00:42:20;2.30;;;1.10;;
80850;SDS011;70268;50.292;6.666;2023-07-31T00:44:49;1.45;;;1.13;;
80850;SDS011;70268;50.292;6.666;2023-07-31T00:47:17;2.28;;;1.33;;
80850;SDS011;70268;50.292;6.666;2023-07-31T00:49:47;2.30;;;0.95;;
80850;SDS011;70268;50.292;6.666;2023-07-31T00:52:16;2.20;;;0.73;;
80850;SDS011;70268;50.292;6.666;2023-07-31T00:54:45;1.42;;;0.80;;
80850;SDS011;70268;50.292;6.666;2023-07-31T00:57:14;1.65;;;0.80;;
80850;SDS011;70268;50.292;6.666;2023-07-31T00:59:43;1.58;;;0.80;;
80850;SDS011;70268;50.292;6.666;2023-07-31T01:02:14;2.38;;;1.80;;
80850;SDS011;70268;50.292;6.666;2023-07-31T01:04:43;3.22;;;1.33;;
80850;SDS011;70268;50.292;6.666;2023-07-31T01:07:17;2.47;;;0.80;;
80850;SDS011;70268;50.292;6.666;2023-07-31T01:09:53;2.20;;;0.93;;
80850;SDS011;70268;50.292;6.666;2023-07-31T01:12:31;3.60;;;0.90;;
80850;SDS011;70268;50.292;6.666;2023-07-31T01:15:03;4.55;;;0.65;;
80850;SDS011;70268;50.292;6.666;2023-07-31T01:17:34;2.05;;;0.98;;
80850;SDS011;70268;50.292;6.666;2023-07-31T01:20:03;2.80;;;0.70;;
80850;SDS011;70268;50.292;6.666;2023-07-31T01:22:43;1.23;;;0.80;;
80850;SDS011;70268;50.292;6.666;2023-07-31T01:28:23;2.83;;;1.00;;
80850;SDS011;70268;50.292;6.666;2023-07-31T01:30:58;5.35;;;0.88;;
80850;SDS011;70268;50.292;6.666;2023-07-31T01:33:28;2.50;;;1.23;;
80850;SDS011;70268;50.292;6.666;2023-07-31T01:35:57;1.05;;;0.85;;
80850;SDS011;70268;50.292;6.666;2023-07-31T01:38:26;1.75;;;1.00;;
80850;SDS011;70268;50.292;6.666;2023-07-31T01:40:56;2.85;;;0.85;;
80850;SDS011;70268;50.292;6.666;2023-07-31T01:43:25;2.90;;;0.90;;
80850;SDS011;70268;50.292;6.666;2023-07-31T01:45:53;1.35;;;0.68;;
80850;SDS011;70268;50.292;6.666;2023-07-31T01:48:24;3.58;;;0.98;;
80850;SDS011;70268;50.292;6.666;2023-07-31T01:50:52;2.05;;;1.25;;
80850;SDS011;70268;50.292;6.666;2023-07-31T01:53:21;4.32;;;0.80;;
80850;SDS011;70268;50.292;6.666;2023-07-31T01:55:49;1.38;;;0.73;;
80850;SDS011;70268;50.292;6.666;2023-07-31T01:58:19;4.32;;;0.98;;
80850;SDS011;70268;50.292;6.666;2023-07-31T02:00:48;1.77;;;0.90;;
80850;SDS011;70268;50.292;6.666;2023-07-31T02:03:16;1.48;;;1.30;;
80850;SDS011;70268;50.292;6.666;2023-07-31T02:05:45;1.35;;;0.73;;
80850;SDS011;70268;50.292;6.666;2023-07-31T02:08:14;1.52;;;1.00;;
80850;SDS011;70268;50.292;6.666;2023-07-31T02:10:44;0.88;;;0.77;;
80850;SDS011;70268;50.292;6.666;2023-07-31T02:13:12;2.70;;;1.00;;
80850;SDS011;70268;50.292;6.666;2023-07-31T02:15:42;2.35;;;1.00;;
80850;SDS011;70268;50.292;6.666;2023-07-31T02:18:10;2.20;;;1.20;;
80850;SDS011;70268;50.292;6.666;2023-07-31T02:20:39;3.40;;;1.02;;
80850;SDS011;70268;50.292;6.666;2023-07-31T02:23:07;2.33;;;1.05;;
80850;SDS011;70268;50.292;6.666;2023-07-31T02:25:36;2.58;;;0.73;;
80850;SDS011;70268;50.292;6.666;2023-07-31T02:28:04;0.85;;;0.82;;
80850;SDS011;70268;50.292;6.666;2023-07-31T02:30:33;2.97;;;1.38;;
80850;SDS011;70268;50.292;6.666;2023-07-31T02:33:03;1.27;;;0.70;;
80850;SDS011;70268;50.292;6.666;2023-07-31T02:35:32;2.42;;;1.42;;
80850;SDS011;70268;50.292;6.666;2023-07-31T02:38:00;1.65;;;0.98;;
80850;SDS011;70268;50.292;6.666;2023-07-31T02:40:29;1.25;;;0.70;;
80850;SDS011;70268;50.292;6.666;2023-07-31T02:42:58;8.57;;;1.20;;
80850;SDS011;70268;50.292;6.666;2023-07-31T02:45:26;1.20;;;0.90;;
80850;SDS011;70268;50.292;6.666;2023-07-31T02:47:55;1.35;;;0.80;;
80850;SDS011;70268;50.292;6.666;2023-07-31T02:50:25;2.78;;;0.75;;
80850;SDS011;70268;50.292;6.666;2023-07-31T02:52:54;4.68;;;1.20;;
80850;SDS011;70268;50.292;6.666;2023-07-31T02:55:23;4.70;;;1.20;;
80850;SDS011;70268;50.292;6.666;2023-07-31T02:57:51;5.93;;;0.85;;
80850;SDS011;70268;50.292;6.666;2023-07-31T03:00:21;4.88;;;1.02;;
80850;SDS011;70268;50.292;6.666;2023-07-31T03:02:49;1.23;;;0.77;;
80850;SDS011;70268;50.292;6.666;2023-07-31T03:05:18;1.85;;;0.95;;
80850;SDS011;70268;50.292;6.666;2023-07-31T03:07:48;0.88;;;0.70;;
80850;SDS011;70268;50.292;6.666;2023-07-31T03:10:17;4.60;;;1.00;;
80850;SDS011;70268;50.292;6.666;2023-07-31T03:12:46;3.13;;;0.88;;
80850;SDS011;70268;50.292;6.666;2023-07-31T03:15:15;4.00;;;1.20;;
80850;SDS011;70268;50.292;6.666;2023-07-31T03:17:44;3.22;;;0.80;;
80850;SDS011;70268;50.292;6.666;2023-07-31T03:20:12;1.40;;;0.93;;
80850;SDS011;70268;50.292;6.666;2023-07-31T03:22:45;2.58;;;1.25;;
80850;SDS011;70268;50.292;6.666;2023-07-31T03:25:15;4.28;;;1.25;;
80850;SDS011;70268;50.292;6.666;2023-07-31T03:27:43;4.70;;;1.35;;
80850;SDS011;70268;50.292;6.666;2023-07-31T03:30:12;1.35;;;0.70;;
80850;SDS011;70268;50.292;6.666;2023-07-31T03:32:41;1.67;;;1.13;;
80850;SDS011;70268;50.292;6.666;2023-07-31T03:35:10;3.28;;;1.23;;
80850;SDS011;70268;50.292;6.666;2023-07-31T03:37:39;4.25;;;1.00;;
80850;SDS011;70268;50.292;6.666;2023-07-31T03:40:07;1.48;;;0.85;;
80850;SDS011;70268;50.292;6.666;2023-07-31T03:42:38;2.28;;;0.85;;
80850;SDS011;70268;50.292;6.666;2023-07-31T03:45:07;1.40;;;0.80;;
80850;SDS011;70268;50.292;6.666;2023-07-31T03:47:36;4.43;;;0.60;;
80850;SDS011;70268;50.292;6.666;2023-07-31T03:50:05;1.40;;;1.00;;
80850;SDS011;70268;50.292;6.666;2023-07-31T03:52:35;2.92;;;1.23;;
80850;SDS011;70268;50.292;6.666;2023-07-31T03:55:03;2.58;;;1.20;;
80850;SDS011;70268;50.292;6.666;2023-07-31T03:57:32;1.23;;;0.77;;
80850;SDS011;70268;50.292;6.666;2023-07-31T04:00:03;1.50;;;0.65;;
80850;SDS011;70268;50.292;6.666;2023-07-31T04:02:38;1.40;;;0.88;;
80850;SDS011;70268;50.292;6.666;2023-07-31T04:05:06;5.25;;;2.50;;
80850;SDS011;70268;50.292;6.666;2023-07-31T04:07:35;3.75;;;1.25;;
80850;SDS011;70268;50.292;6.666;2023-07-31T04:10:04;2.58;;;1.13;;
80850;SDS011;70268;50.292;6.666;2023-07-31T04:12:33;1.88;;;1.20;;
80850;SDS011;70268;50.292;6.666;2023-07-31T04:15:03;1.73;;;0.90;;
80850;SDS011;70268;50.292;6.666;2023-07-31T04:17:32;3.03;;;1.30;;
80850;SDS011;70268;50.292;6.666;2023-07-31T04:20:01;2.75;;;1.20;;
80850;SDS011;70268;50.292;6.666;2023-07-31T04:22:30;3.67;;;1.20;;
80850;SDS011;70268;50.292;6.666;2023-07-31T04:24:58;3.63;;;1.23;;
80850;SDS011;70268;50.292;6.666;2023-07-31T04:27:27;5.55;;;1.38;;
80850;SDS011;70268;50.292;6.666;2023-07-31T04:29:55;1.80;;;0.90;;
80850;SDS011;70268;50.292;6.666;2023-07-31T04:32:25;7.97;;;1.30;;
80850;SDS011;70268;50.292;6.666;2023-07-31T04:34:56;2.25;;;0.82;;
80850;SDS011;70268;50.292;6.666;2023-07-31T04:37:24;5.80;;;1.38;;
80850;SDS011;70268;50.292;6.666;2023-07-31T04:39:53;4.72;;;1.00;;
80850;SDS011;70268;50.292;6.666;2023-07-31T04:42:21;3.63;;;1.20;;
80850;SDS011;70268;50.292;6.666;2023-07-31T04:44:50;5.78;;;1.00;;
80850;SDS011;70268;50.292;6.666;2023-07-31T04:47:19;5.07;;;1.08;;
80850;SDS011;70268;50.292;6.666;2023-07-31T04:49:49;2.30;;;1.08;;
80850;SDS011;70268;50.292;6.666;2023-07-31T04:52:18;9.02;;;1.35;;
80850;SDS011;70268;50.292;6.666;2023-07-31T04:54:46;2.30;;;0.93;;
80850;SDS011;70268;50.292;6.666;2023-07-31T04:57:15;7.07;;;1.58;;
80850;SDS011;70268;50.292;6.666;2023-07-31T04:59:44;2.75;;;0.88;;
80850;SDS011;70268;50.292;6.666;2023-07-31T05:02:14;3.38;;;1.00;;
80850;SDS011;70268;50.292;6.666;2023-07-31T05:04:43;5.75;;;0.90;;
80850;SDS011;70268;50.292;6.666;2023-07-31T05:07:13;3.05;;;1.63;;
80850;SDS011;70268;50.292;6.666;2023-07-31T05:09:41;2.22;;;0.80;;
80850;SDS011;70268;50.292;6.666;2023-07-31T05:12:10;1.80;;;1.00;;
80850;SDS011;70268;50.292;6.666;2023-07-31T05:14:38;1.77;;;1.25;;
80850;SDS011;70268;50.292;6.666;2023-07-31T05:17:07;12.13;;;1.48;;
80850;SDS011;70268;50.292;6.666;2023-07-31T05:19:35;5.63;;;1.50;;
80850;SDS011;70268;50.292;6.666;2023-07-31T05:22:04;3.25;;;1.45;;
80850;SDS011;70268;50.292;6.666;2023-07-31T05:24:34;3.60;;;1.73;;
80850;SDS011;70268;50.292;6.666;2023-07-31T05:27:03;1.77;;;1.05;;
80850;SDS011;70268;50.292;6.666;2023-07-31T05:29:32;3.13;;;1.00;;
80850;SDS011;70268;50.292;6.666;2023-07-31T05:32:00;3.70;;;1.10;;
80850;SDS011;70268;50.292;6.666;2023-07-31T05:34:29;4.93;;;1.35;;
80850;SDS011;70268;50.292;6.666;2023-07-31T05:36:57;9.95;;;1.65;;
80850;SDS011;70268;50.292;6.666;2023-07-31T05:39:26;6.90;;;2.72;;
80850;SDS011;70268;50.292;6.666;2023-07-31T05:41:56;6.72;;;1.67;;
80850;SDS011;70268;50.292;6.666;2023-07-31T05:44:24;4.38;;;1.70;;
80850;SDS011;70268;50.292;6.666;2023-07-31T05:46:53;6.47;;;1.58;;
80850;SDS011;70268;50.292;6.666;2023-07-31T05:49:21;7.22;;;2.25;;
80850;SDS011;70268;50.292;6.666;2023-07-31T05:51:50;7.55;;;2.97;;
80850;SDS011;70268;50.292;6.666;2023-07-31T05:54:18;6.30;;;1.73;;
80850;SDS011;70268;50.292;6.666;2023-07-31T05:56:47;9.43;;;1.90;;
80850;SDS011;70268;50.292;6.666;2023-07-31T05:59:17;7.57;;;2.17;;
80850;SDS011;70268;50.292;6.666;2023-07-31T06:01:45;5.32;;;2.08;;
80850;SDS011;70268;50.292;6.666;2023-07-31T06:04:14;8.70;;;2.53;;
80850;SDS011;70268;50.292;6.666;2023-07-31T06:06:43;6.63;;;1.83;;
80850;SDS011;70268;50.292;6.666;2023-07-31T06:09:11;2.88;;;1.30;;
80850;SDS011;70268;50.292;6.666;2023-07-31T06:11:41;4.57;;;2.15;;
80850;SDS011;70268;50.292;6.666;2023-07-31T06:14:09;4.82;;;2.05;;
80850;SDS011;70268;50.292;6.666;2023-07-31T06:16:39;2.72;;;1.77;;
80850;SDS011;70268;50.292;6.666;2023-07-31T06:19:08;4.20;;;2.03;;
80850;SDS011;70268;50.292;6.666;2023-07-31T06:21:37;6.25;;;2.08;;
80850;SDS011;70268;50.292;6.666;2023-07-31T06:24:05;3.45;;;1.65;;
80850;SDS011;70268;50.292;6.666;2023-07-31T06:26:34;3.70;;;1.67;;
80850;SDS011;70268;50.292;6.666;2023-07-31T06:29:02;6.40;;;1.83;;
80850;SDS011;70268;50.292;6.666;2023-07-31T06:31:31;4.40;;;2.08;;
80850;SDS011;70268;50.292;6.666;2023-07-31T06:34:01;3.35;;;1.92;;
80850;SDS011;70268;50.292;6.666;2023-07-31T06:36:29;2.90;;;1.70;;
80850;SDS011;70268;50.292;6.666;2023-07-31T06:38:58;3.17;;;2.05;;
80850;SDS011;70268;50.292;6.666;2023-07-31T06:41:26;4.95;;;2.10;;
80850;SDS011;70268;50.292;6.666;2023-07-31T06:43:55;4.32;;;1.58;;
80850;SDS011;70268;50.292;6.666;2023-07-31T06:46:24;8.00;;;2.95;;
80850;SDS011;70268;50.292;6.666;2023-07-31T06:48:52;2.83;;;1.60;;
80850;SDS011;70268;50.292;6.666;2023-07-31T06:51:23;6.97;;;2.20;;
80850;SDS011;70268;50.292;6.666;2023-07-31T06:53:51;4.18;;;1.77;;
80850;SDS011;70268;50.292;6.666;2023-07-31T06:56:20;6.43;;;1.73;;
80850;SDS011;70268;50.292;6.666;2023-07-31T06:58:49;9.00;;;2.25;;
80850;SDS011;70268;50.292;6.666;2023-07-31T07:01:18;4.07;;;1.67;;
80850;SDS011;70268;50.292;6.666;2023-07-31T07:03:46;10.00;;;2.75;;
80850;SDS011;70268;50.292;6.666;2023-07-31T07:06:17;5.45;;;2.17;;
80850;SDS011;70268;50.292;6.666;2023-07-31T07:08:47;4.82;;;1.90;;
80850;SDS011;70268;50.292;6.666;2023-07-31T07:11:16;3.75;;;1.83;;
80850;SDS011;70268;50.292;6.666;2023-07-31T07:13:44;3.67;;;2.20;;
80850;SDS011;70268;50.292;6.666;2023-07-31T07:16:13;3.08;;;1.95;;
80850;SDS011;70268;50.292;6.666;2023-07-31T07:18:42;5.40;;;2.13;;
80850;SDS011;70268;50.292;6.666;2023-07-31T07:21:29;6.90;;;2.08;;
80850;SDS011;70268;50.292;6.666;2023-07-31T07:23:59;7.50;;;1.90;;
80850;SDS011;70268;50.292;6.666;2023-07-31T07:26:28;2.67;;;1.48;;
80850;SDS011;70268;50.292;6.666;2023-07-31T07:28:57;4.28;;;2.45;;
80850;SDS011;70268;50.292;6.666;2023-07-31T07:31:28;9.10;;;2.25;;
80850;SDS011;70268;50.292;6.666;2023-07-31T07:33:57;4.40;;;2.05;;
80850;SDS011;70268;50.292;6.666;2023-07-31T07:36:27;4.47;;;1.50;;
80850;SDS011;70268;50.292;6.666;2023-07-31T07:38:55;3.50;;;1.80;;
80850;SDS011;70268;50.292;6.666;2023-07-31T07:41:26;3.80;;;1.85;;
80850;SDS011;70268;50.292;6.666;2023-07-31T07:43:54;7.15;;;2.13;;
80850;SDS011;70268;50.292;6.666;2023-07-31T07:46:23;6.72;;;1.80;;
80850;SDS011;70268;50.292;6.666;2023-07-31T07:48:53;7.13;;;2.47;;
80850;SDS011;70268;50.292;6.666;2023-07-31T07:51:22;6.63;;;2.38;;
80850;SDS011;70268;50.292;6.666;2023-07-31T07:53:50;4.18;;;1.80;;
80850;SDS011;70268;50.292;6.666;2023-07-31T07:56:19;4.53;;;2.00;;
80850;SDS011;70268;50.292;6.666;2023-07-31T07:58:49;2.95;;;1.33;;
80850;SDS011;70268;50.292;6.666;2023-07-31T08:01:18;5.20;;;2.17;;
80850;SDS011;70268;50.292;6.666;2023-07-31T08:03:47;4.28;;;1.80;;
80850;SDS011;70268;50.292;6.666;2023-07-31T08:06:16;6.78;;;1.65;;
80850;SDS011;70268;50.292;6.666;2023-07-31T08:08:45;4.68;;;2.45;;
80850;SDS011;70268;50.292;6.666;2023-07-31T08:11:13;5.40;;;2.45;;
80850;SDS011;70268;50.292;6.666;2023-07-31T08:13:42;7.78;;;1.88;;
80850;SDS011;70268;50.292;6.666;2023-07-31T08:16:12;3.90;;;1.90;;
80850;SDS011;70268;50.292;6.666;2023-07-31T08:18:41;3.42;;;1.60;;
80850;SDS011;70268;50.292;6.666;2023-07-31T08:21:10;3.78;;;1.83;;
80850;SDS011;70268;50.292;6.666;2023-07-31T08:23:38;7.32;;;2.50;;
80850;SDS011;70268;50.292;6.666;2023-07-31T08:26:07;8.07;;;2.92;;
80850;SDS011;70268;50.292;6.666;2023-07-31T08:28:36;8.88;;;2.47;;
80850;SDS011;70268;50.292;6.666;2023-07-31T08:31:04;4.57;;;2.47;;
80850;SDS011;70268;50.292;6.666;2023-07-31T08:33:35;7.93;;;1.92;;
80850;SDS011;70268;50.292;6.666;2023-07-31T08:36:03;6.88;;;2.20;;
80850;SDS011;70268;50.292;6.666;2023-07-31T08:38:32;5.47;;;2.08;;
80850;SDS011;70268;50.292;6.666;2023-07-31T08:41:02;3.38;;;1.60;;
80850;SDS011;70268;50.292;6.666;2023-07-31T08:43:31;5.20;;;1.90;;
80850;SDS011;70268;50.292;6.666;2023-07-31T08:46:01;6.03;;;2.05;;
80850;SDS011;70268;50.292;6.666;2023-07-31T08:48:30;3.10;;;1.88;;
80850;SDS011;70268;50.292;6.666;2023-07-31T08:51:01;6.60;;;1.98;;
80850;SDS011;70268;50.292;6.666;2023-07-31T08:53:30;5.65;;;2.05;;
80850;SDS011;70268;50.292;6.666;2023-07-31T08:55:59;3.63;;;1.40;;
80850;SDS011;70268;50.292;6.666;2023-07-31T08:58:29;5.10;;;1.80;;
80850;SDS011;70268;50.292;6.666;2023-07-31T09:01:00;5.07;;;1.50;;
80850;SDS011;70268;50.292;6.666;2023-07-31T09:03:33;2.60;;;1.40;;
80850;SDS011;70268;50.292;6.666;2023-07-31T09:06:04;4.78;;;1.85;;
80850;SDS011;70268;50.292;6.666;2023-07-31T09:08:33;5.55;;;1.60;;
80850;SDS011;70268;50.292;6.666;2023-07-31T09:11:02;4.55;;;1.80;;
80850;SDS011;70268;50.292;6.666;2023-07-31T09:13:32;3.60;;;1.45;;
80850;SDS011;70268;50.292;6.666;2023-07-31T09:16:00;3.25;;;1.23;;
80850;SDS011;70268;50.292;6.666;2023-07-31T09:18:29;3.03;;;1.48;;
80850;SDS011;70268;50.292;6.666;2023-07-31T09:21:01;2.45;;;1.40;;
80850;SDS011;70268;50.292;6.666;2023-07-31T09:23:41;3.72;;;1.02;;
80850;SDS011;70268;50.292;6.666;2023-07-31T09:26:11;5.45;;;1.80;;
80850;SDS011;70268;50.292;6.666;2023-07-31T09:28:57;4.85;;;1.98;;
80850;SDS011;70268;50.292;6.666;2023-07-31T09:31:32;4.80;;;1.60;;
80850;SDS011;70268;50.292;6.666;2023-07-31T09:34:06;3.70;;;1.27;;
80850;SDS011;70268;50.292;6.666;2023-07-31T09:36:39;2.63;;;1.52;;
80850;SDS011;70268;50.292;6.666;2023-07-31T09:39:10;3.28;;;1.63;;
80850;SDS011;70268;50.292;6.666;2023-07-31T09:41:39;3.72;;;1.65;;
80850;SDS011;70268;50.292;6.666;2023-07-31T09:44:11;6.50;;;1.42;;
80850;SDS011;70268;50.292;6.666;2023-07-31T09:46:40;5.80;;;1.48;;
80850;SDS011;70268;50.292;6.666;2023-07-31T09:49:10;5.05;;;1.65;;
80850;SDS011;70268;50.292;6.666;2023-07-31T09:51:40;12.48;;;1.80;;
80850;SDS011;70268;50.292;6.666;2023-07-31T09:54:11;9.45;;;2.67;;
80850;SDS011;70268;50.292;6.666;2023-07-31T09:56:43;7.20;;;1.40;;
80850;SDS011;70268;50.292;6.666;2023-07-31T09:59:13;3.47;;;1.70;;
80850;SDS011;70268;50.292;6.666;2023-07-31T10:01:43;4.18;;;1.50;;
80850;SDS011;70268;50.292;6.666;2023-07-31T10:04:13;4.28;;;1.40;;
80850;SDS011;70268;50.292;6.666;2023-07-31T10:06:42;2.67;;;1.58;;
80850;SDS011;70268;50.292;6.666;2023-07-31T10:09:15;4.30;;;1.50;;
80850;SDS011;70268;50.292;6.666;2023-07-31T10:11:47;2.15;;;1.35;;
80850;SDS011;70268;50.292;6.666;2023-07-31T10:14:20;2.60;;;1.30;;
80850;SDS011;70268;50.292;6.666;2023-07-31T10:16:48;5.80;;;2.20;;
80850;SDS011;70268;50.292;6.666;2023-07-31T10:19:18;2.83;;;1.30;;
80850;SDS011;70268;50.292;6.666;2023-07-31T10:21:48;2.63;;;1.27;;
80850;SDS011;70268;50.292;6.666;2023-07-31T10:24:18;4.75;;;1.88;;
80850;SDS011;70268;50.292;6.666;2023-07-31T10:26:47;3.13;;;1.60;;
80850;SDS011;70268;50.292;6.666;2023-07-31T10:29:16;4.18;;;1.27;;
80850;SDS011;70268;50.292;6.666;2023-07-31T10:31:46;4.53;;;1.52;;
80850;SDS011;70268;50.292;6.666;2023-07-31T10:34:16;4.10;;;1.75;;
80850;SDS011;70268;50.292;6.666;2023-07-31T10:36:45;3.67;;;1.67;;
80850;SDS011;70268;50.292;6.666;2023-07-31T10:42:09;2.75;;;1.00;;
80850;SDS011;70268;50.292;6.666;2023-07-31T10:44:43;2.70;;;1.15;;
80850;SDS011;70268;50.292;6.666;2023-07-31T10:47:14;5.97;;;1.30;;
80850;SDS011;70268;50.292;6.666;2023-07-31T10:49:44;5.90;;;1.52;;
80850;SDS011;70268;50.292;6.666;2023-07-31T10:52:15;4.00;;;1.30;;
80850;SDS011;70268;50.292;6.666;2023-07-31T10:57:53;3.55;;;1.30;;
80850;SDS011;70268;50.292;6.666;2023-07-31T11:00:24;4.93;;;1.17;;
80850;SDS011;70268;50.292;6.666;2023-07-31T11:03:01;7.38;;;2.03;;
80850;SDS011;70268;50.292;6.666;2023-07-31T11:05:41;2.65;;;1.20;;
80850;SDS011;70268;50.292;6.666;2023-07-31T11:08:12;5.55;;;1.70;;
80850;SDS011;70268;50.292;6.666;2023-07-31T11:10:41;3.58;;;1.33;;
80850;SDS011;70268;50.292;6.666;2023-07-31T11:13:12;5.50;;;1.65;;
80850;SDS011;70268;50.292;6.666;2023-07-31T11:15:41;3.33;;;1.33;;
80850;SDS011;70268;50.292;6.666;2023-07-31T11:18:10;3.85;;;1.42;;
80850;SDS011;70268;50.292;6.666;2023-07-31T11:20:38;5.47;;;2.50;;
80850;SDS011;70268;50.292;6.666;2023-07-31T11:23:08;5.85;;;1.65;;
80850;SDS011;70268;50.292;6.666;2023-07-31T11:25:37;5.47;;;1.42;;
80850;SDS011;70268;50.292;6.666;2023-07-31T11:28:09;5.70;;;1.45;;
80850;SDS011;70268;50.292;6.666;2023-07-31T11:30:40;2.05;;;1.10;;
80850;SDS011;70268;50.292;6.666;2023-07-31T11:33:10;5.03;;;1.98;;
80850;SDS011;70268;50.292;6.666;2023-07-31T11:35:41;9.70;;;1.58;;
80850;SDS011;70268;50.292;6.666;2023-07-31T11:38:16;7.00;;;1.65;;
80850;SDS011;70268;50.292;6.666;2023-07-31T11:40:51;6.53;;;2.13;;
80850;SDS011;70268;50.292;6.666;2023-07-31T11:43:20;9.82;;;2.00;;
80850;SDS011;70268;50.292;6.666;2023-07-31T11:45:51;13.13;;;1.60;;
80850;SDS011;70268;50.292;6.666;2023-07-31T11:48:21;5.05;;;1.48;;
80850;SDS011;70268;50.292;6.666;2023-07-31T11:50:51;14.38;;;2.83;;
80850;SDS011;70268;50.292;6.666;2023-07-31T11:53:24;12.75;;;2.35;;
80850;SDS011;70268;50.292;6.666;2023-07-31T11:55:57;6.10;;;1.63;;
80850;SDS011;70268;50.292;6.666;2023-07-31T11:58:27;6.30;;;1.55;;
80850;SDS011;70268;50.292;6.666;2023-07-31T12:00:58;8.13;;;1.65;;
80850;SDS011;70268;50.292;6.666;2023-07-31T12:03:27;6.40;;;1.90;;
80850;SDS011;70268;50.292;6.666;2023-07-31T12:05:56;5.50;;;1.50;;
80850;SDS011;70268;50.292;6.666;2023-07-31T12:08:26;9.35;;;2.28;;
80850;SDS011;70268;50.292;6.666;2023-07-31T12:10:55;5.00;;;2.15;;
80850;SDS011;70268;50.292;6.666;2023-07-31T12:13:31;6.35;;;1.58;;
80850;SDS011;70268;50.292;6.666;2023-07-31T12:16:04;4.72;;;1.75;;
80850;SDS011;70268;50.292;6.666;2023-07-31T12:18:33;2.25;;;1.20;;
80850;SDS011;70268;50.292;6.666;2023-07-31T12:21:04;6.68;;;1.55;;
80850;SDS011;70268;50.292;6.666;2023-07-31T12:23:34;2.25;;;1.20;;
80850;SDS011;70268;50.292;6.666;2023-07-31T12:26:05;4.85;;;1.50;;
80850;SDS011;70268;50.292;6.666;2023-07-31T12:28:35;4.70;;;1.45;;
80850;SDS011;70268;50.292;6.666;2023-07-31T12:31:06;4.60;;;1.30;;
80850;SDS011;70268;50.292;6.666;2023-07-31T12:33:38;4.38;;;1.70;;
80850;SDS011;70268;50.292;6.666;2023-07-31T12:36:09;2.95;;;1.38;;
80850;SDS011;70268;50.292;6.666;2023-07-31T12:38:39;2.42;;;1.15;;
80850;SDS011;70268;50.292;6.666;2023-07-31T12:41:08;3.67;;;1.45;;
80850;SDS011;70268;50.292;6.666;2023-07-31T12:43:37;2.72;;;1.20;;
80850;SDS011;70268;50.292;6.666;2023-07-31T12:46:08;9.55;;;1.40;;
80850;SDS011;70268;50.292;6.666;2023-07-31T12:48:37;3.00;;;1.27;;
80850;SDS011;70268;50.292;6.666;2023-07-31T12:51:06;2.35;;;1.30;;
80850;SDS011;70268;50.292;6.666;2023-07-31T12:53:35;2.25;;;1.30;;
80850;SDS011;70268;50.292;6.666;2023-07-31T12:56:04;5.50;;;1.20;;
80850;SDS011;70268;50.292;6.666;2023-07-31T12:58:32;3.05;;;1.23;;
80850;SDS011;70268;50.292;6.666;2023-07-31T13:01:01;7.10;;;1.40;;
80850;SDS011;70268;50.292;6.666;2023-07-31T13:03:31;2.88;;;1.55;;
80850;SDS011;70268;50.292;6.666;2023-07-31T13:06:00;2.78;;;1.52;;
80850;SDS011;70268;50.292;6.666;2023-07-31T13:08:29;2.22;;;1.13;;
80850;SDS011;70268;50.292;6.666;2023-07-31T13:10:57;3.65;;;1.52;;
80850;SDS011;70268;50.292;6.666;2023-07-31T13:13:26;3.45;;;1.50;;
80850;SDS011;70268;50.292;6.666;2023-07-31T13:15:56;1.83;;;1.00;;
80850;SDS011;70268;50.292;6.666;2023-07-31T13:18:25;3.35;;;1.00;;
80850;SDS011;70268;50.292;6.666;2023-07-31T13:20:55;2.58;;;0.95;;
80850;SDS011;70268;50.292;6.666;2023-07-31T13:23:23;4.20;;;1.58;;
80850;SDS011;70268;50.292;6.666;2023-07-31T13:25:52;2.20;;;1.10;;
80850;SDS011;70268;50.292;6.666;2023-07-31T13:28:20;4.55;;;1.23;;
80850;SDS011;70268;50.292;6.666;2023-07-31T13:30:49;3.67;;;1.13;;
80850;SDS011;70268;50.292;6.666;2023-07-31T13:33:17;4.97;;;1.48;;
80850;SDS011;70268;50.292;6.666;2023-07-31T13:36:04;2.58;;;1.38;;
80850;SDS011;70268;50.292;6.666;2023-07-31T13:38:32;3.83;;;1.15;;
80850;SDS011;70268;50.292;6.666;2023-07-31T13:41:01;2.28;;;1.00;;
80850;SDS011;70268;50.292;6.666;2023-07-31T13:43:30;3.45;;;1.63;;
80850;SDS011;70268;50.292;6.666;2023-07-31T13:45:58;5.50;;;1.05;;
80850;SDS011;70268;50.292;6.666;2023-07-31T13:48:34;8.05;;;1.15;;
80850;SDS011;70268;50.292;6.666;2023-07-31T13:51:04;8.93;;;1.05;;
80850;SDS011;70268;50.292;6.666;2023-07-31T13:53:32;2.58;;;1.38;;
80850;SDS011;70268;50.292;6.666;2023-07-31T13:56:01;8.95;;;1.38;;
80850;SDS011;70268;50.292;6.666;2023-07-31T13:58:29;14.85;;;1.23;;
80850;SDS011;70268;50.292;6.666;2023-07-31T14:00:58;5.00;;;1.10;;
80850;SDS011;70268;50.292;6.666;2023-07-31T14:03:26;3.92;;;1.67;;
80850;SDS011;70268;50.292;6.666;2023-07-31T14:05:55;4.18;;;1.95;;
80850;SDS011;70268;50.292;6.666;2023-07-31T14:08:25;3.15;;;0.93;;
80850;SDS011;70268;50.292;6.666;2023-07-31T14:10:53;4.88;;;1.83;;
80850;SDS011;70268;50.292;6.666;2023-07-31T14:13:22;3.42;;;1.42;;
80850;SDS011;70268;50.292;6.666;2023-07-31T14:15:50;1.80;;;1.20;;
80850;SDS011;70268;50.292;6.666;2023-07-31T14:18:20;1.85;;;1.05;;
80850;SDS011;70268;50.292;6.666;2023-07-31T14:20:50;3.45;;;1.50;;
80850;SDS011;70268;50.292;6.666;2023-07-31T14:23:18;3.65;;;1.17;;
80850;SDS011;70268;50.292;6.666;2023-07-31T14:25:49;5.65;;;1.20;;
80850;SDS011;70268;50.292;6.666;2023-07-31T14:28:17;4.07;;;1.08;;
80850;SDS011;70268;50.292;6.666;2023-07-31T14:30:46;5.53;;;1.33;;
80850;SDS011;70268;50.292;6.666;2023-07-31T14:33:15;6.78;;;1.20;;
80850;SDS011;70268;50.292;6.666;2023-07-31T14:35:43;5.65;;;1.33;;
80850;SDS011;70268;50.292;6.666;2023-07-31T14:38:12;1.30;;;0.82;;
80850;SDS011;70268;50.292;6.666;2023-07-31T14:40:41;1.10;;;0.80;;
80850;SDS011;70268;50.292;6.666;2023-07-31T14:43:11;2.30;;;1.17;;
80850;SDS011;70268;50.292;6.666;2023-07-31T14:45:40;2.38;;;0.80;;
80850;SDS011;70268;50.292;6.666;2023-07-31T14:48:08;1.58;;;0.77;;
80850;SDS011;70268;50.292;6.666;2023-07-31T14:50:37;1.45;;;0.90;;
80850;SDS011;70268;50.292;6.666;2023-07-31T14:53:05;1.38;;;1.00;;
80850;SDS011;70268;50.292;6.666;2023-07-31T14:55:34;1.27;;;1.00;;
80850;SDS011;70268;50.292;6.666;2023-07-31T14:58:02;2.50;;;1.00;;
80850;SDS011;70268;50.292;6.666;2023-07-31T15:00:32;2.78;;;1.00;;
80850;SDS011;70268;50.292;6.666;2023-07-31T15:03:01;6.18;;;1.27;;
80850;SDS011;70268;50.292;6.666;2023-07-31T15:05:31;3.33;;;1.33;;
80850;SDS011;70268;50.292;6.666;2023-07-31T15:07:59;1.92;;;1.20;;
80850;SDS011;70268;50.292;6.666;2023-07-31T15:10:28;4.72;;;0.90;;